sensor_id;sensor_type;location;lat;lon;timestamp;temperature;humidity
13713;DHT22;6928;50.546;7.120;2023-06-10T00:02:23;17.98;73.39
13713;DHT22;6928;50.546;7.120;2023-06-10T00:04:50;18.19;72.58
13713;DHT22;6928;50.546;7.120;2023-06-10T00:07:18;18.12;72.96
13713;DHT22;6928;50.546;7.120;2023-06-10T00:09:44;18.19;72.61
13713;DHT22;6928;50.546;7.120;2023-06-10T00:12:11;18.26;72.32
13713;DHT22;6928;50.546;7.120;2023-06-10T00:14:39;18.22;72.42
13713;DHT22;6928;50.546;7.120;2023-06-10T00:17:07;18.22;72.40
13713;DHT22;6928;50.546;7.120;2023-06-10T00:19:35;18.08;72.78
13713;DHT22;6928;50.546;7.120;2023-06-10T00:22:02;18.10;72.60
13713;DHT22;6928;50.546;7.120;2023-06-10T00:24:30;18.05;72.87
13713;DHT22;6928;50.546;7.120;2023-06-10T00:26:56;17.97;73.30
13713;DHT22;6928;50.546;7.120;2023-06-10T00:29:23;17.81;74.11
13713;DHT22;6928;50.546;7.120;2023-06-10T00:31:49;18.05;72.88
13713;DHT22;6928;50.546;7.120;2023-06-10T00:34:20;17.89;73.25
13713;DHT22;6928;50.546;7.120;2023-06-10T00:36:46;17.96;73.11
13713;DHT22;6928;50.546;7.120;2023-06-10T00:39:13;17.96;73.03
13713;DHT22;6928;50.546;7.120;2023-06-10T00:41:39;17.89;73.53
13713;DHT22;6928;50.546;7.120;2023-06-10T00:44:06;17.96;73.11
13713;DHT22;6928;50.546;7.120;2023-06-10T00:46:33;18.00;73.01
13713;DHT22;6928;50.546;7.120;2023-06-10T00:49:01;17.59;74.84
13713;DHT22;6928;50.546;7.120;2023-06-10T00:51:29;17.74;74.20
13713;DHT22;6928;50.546;7.120;2023-06-10T00:53:56;17.70;73.87
13713;DHT22;6928;50.546;7.120;2023-06-10T00:56:22;17.71;73.81
13713;DHT22;6928;50.546;7.120;2023-06-10T00:58:49;17.71;73.78
13713;DHT22;6928;50.546;7.120;2023-06-10T01:01:16;17.57;74.61
13713;DHT22;6928;50.546;7.120;2023-06-10T01:03:43;17.50;74.31
13713;DHT22;6928;50.546;7.120;2023-06-10T01:06:17;17.49;74.47
13713;DHT22;6928;50.546;7.120;2023-06-10T01:08:52;17.50;74.57
13713;DHT22;6928;50.546;7.120;2023-06-10T01:11:25;17.50;74.44
13713;DHT22;6928;50.546;7.120;2023-06-10T01:13:55;17.66;73.93
13713;DHT22;6928;50.546;7.120;2023-06-10T01:16:22;17.65;73.82
13713;DHT22;6928;50.546;7.120;2023-06-10T01:18:48;17.47;74.64
13713;DHT22;6928;50.546;7.120;2023-06-10T01:21:20;17.39;74.81
13713;DHT22;6928;50.546;7.120;2023-06-10T01:23:50;17.32;75.10
13713;DHT22;6928;50.546;7.120;2023-06-10T01:26:16;17.46;74.39
13713;DHT22;6928;50.546;7.120;2023-06-10T01:28:47;17.39;74.89
13713;DHT22;6928;50.546;7.120;2023-06-10T01:31:17;17.43;74.67
13713;DHT22;6928;50.546;7.120;2023-06-10T01:33:50;17.42;74.38
13713;DHT22;6928;50.546;7.120;2023-06-10T01:36:21;17.23;75.00
13713;DHT22;6928;50.546;7.120;2023-06-10T01:38:49;17.22;75.02
13713;DHT22;6928;50.546;7.120;2023-06-10T01:41:17;17.14;75.22
13713;DHT22;6928;50.546;7.120;2023-06-10T01:43:45;17.11;75.34
13713;DHT22;6928;50.546;7.120;2023-06-10T01:46:12;17.07;75.38
13713;DHT22;6928;50.546;7.120;2023-06-10T01:48:38;17.12;75.48
13713;DHT22;6928;50.546;7.120;2023-06-10T01:51:05;17.16;75.37
13713;DHT22;6928;50.546;7.120;2023-06-10T01:53:33;17.18;75.15
13713;DHT22;6928;50.546;7.120;2023-06-10T01:56:00;17.11;75.17
13713;DHT22;6928;50.546;7.120;2023-06-10T01:58:26;17.15;74.95
13713;DHT22;6928;50.546;7.120;2023-06-10T02:00:53;17.02;75.44
13713;DHT22;6928;50.546;7.120;2023-06-10T02:03:19;16.88;75.97
13713;DHT22;6928;50.546;7.120;2023-06-10T02:05:46;16.91;75.89
13713;DHT22;6928;50.546;7.120;2023-06-10T02:08:12;16.94;75.76
13713;DHT22;6928;50.546;7.120;2023-06-10T02:10:40;16.75;76.21
13713;DHT22;6928;50.546;7.120;2023-06-10T02:13:07;16.74;76.33
13713;DHT22;6928;50.546;7.120;2023-06-10T02:15:33;16.70;76.59
13713;DHT22;6928;50.546;7.120;2023-06-10T02:18:00;16.65;76.76
13713;DHT22;6928;50.546;7.120;2023-06-10T02:20:27;16.70;76.49
13713;DHT22;6928;50.546;7.120;2023-06-10T02:22:54;16.71;76.48
13713;DHT22;6928;50.546;7.120;2023-06-10T02:25:20;16.56;77.04
13713;DHT22;6928;50.546;7.120;2023-06-10T02:27:48;16.59;76.89
13713;DHT22;6928;50.546;7.120;2023-06-10T02:30:15;16.68;76.45
13713;DHT22;6928;50.546;7.120;2023-06-10T02:32:41;16.60;76.75
13713;DHT22;6928;50.546;7.120;2023-06-10T02:35:13;16.64;76.93
13713;DHT22;6928;50.546;7.120;2023-06-10T02:37:39;16.54;76.82
13713;DHT22;6928;50.546;7.120;2023-06-10T02:40:07;16.64;76.72
13713;DHT22;6928;50.546;7.120;2023-06-10T02:42:34;16.59;76.99
13713;DHT22;6928;50.546;7.120;2023-06-10T02:45:02;16.39;77.66
13713;DHT22;6928;50.546;7.120;2023-06-10T02:47:28;16.39;77.63
13713;DHT22;6928;50.546;7.120;2023-06-10T02:49:55;16.32;77.60
13713;DHT22;6928;50.546;7.120;2023-06-10T02:52:21;16.22;77.96
13713;DHT22;6928;50.546;7.120;2023-06-10T02:54:48;16.36;77.40
13713;DHT22;6928;50.546;7.120;2023-06-10T02:57:15;16.37;77.19
13713;DHT22;6928;50.546;7.120;2023-06-10T02:59:41;16.28;77.49
13713;DHT22;6928;50.546;7.120;2023-06-10T03:02:09;16.26;77.69
13713;DHT22;6928;50.546;7.120;2023-06-10T03:04:37;16.02;78.88
13713;DHT22;6928;50.546;7.120;2023-06-10T03:07:04;16.23;77.88
13713;DHT22;6928;50.546;7.120;2023-06-10T03:09:32;16.22;77.95
13713;DHT22;6928;50.546;7.120;2023-06-10T03:11:59;16.15;78.08
13713;DHT22;6928;50.546;7.120;2023-06-10T03:14:25;16.16;78.15
13713;DHT22;6928;50.546;7.120;2023-06-10T03:16:52;16.09;78.19
13713;DHT22;6928;50.546;7.120;2023-06-10T03:19:20;16.01;78.21
13713;DHT22;6928;50.546;7.120;2023-06-10T03:21:49;15.92;78.70
13713;DHT22;6928;50.546;7.120;2023-06-10T03:24:16;15.93;78.68
13713;DHT22;6928;50.546;7.120;2023-06-10T03:26:42;15.96;78.62
13713;DHT22;6928;50.546;7.120;2023-06-10T03:29:09;16.02;78.37
13713;DHT22;6928;50.546;7.120;2023-06-10T03:31:35;15.92;79.26
13713;DHT22;6928;50.546;7.120;2023-06-10T03:34:04;15.91;79.06
13713;DHT22;6928;50.546;7.120;2023-06-10T03:36:32;15.99;78.66
13713;DHT22;6928;50.546;7.120;2023-06-10T03:38:58;15.96;79.13
13713;DHT22;6928;50.546;7.120;2023-06-10T03:41:25;16.09;78.80
13713;DHT22;6928;50.546;7.120;2023-06-10T03:43:51;15.93;79.37
13713;DHT22;6928;50.546;7.120;2023-06-10T03:46:18;15.88;79.91
13713;DHT22;6928;50.546;7.120;2023-06-10T03:48:45;15.65;80.73
13713;DHT22;6928;50.546;7.120;2023-06-10T03:51:11;15.89;79.75
13713;DHT22;6928;50.546;7.120;2023-06-10T03:53:39;15.95;79.38
13713;DHT22;6928;50.546;7.120;2023-06-10T03:56:06;16.01;79.29
13713;DHT22;6928;50.546;7.120;2023-06-10T03:58:32;15.84;79.72
13713;DHT22;6928;50.546;7.120;2023-06-10T04:00:59;15.70;80.05
13713;DHT22;6928;50.546;7.120;2023-06-10T04:03:25;15.70;80.06
13713;DHT22;6928;50.546;7.120;2023-06-10T04:05:52;15.58;80.62
13713;DHT22;6928;50.546;7.120;2023-06-10T04:08:19;15.75;79.88
13713;DHT22;6928;50.546;7.120;2023-06-10T04:10:47;15.77;79.86
13713;DHT22;6928;50.546;7.120;2023-06-10T04:13:13;15.79;79.59
13713;DHT22;6928;50.546;7.120;2023-06-10T04:15:40;15.50;80.77
13713;DHT22;6928;50.546;7.120;2023-06-10T04:18:07;15.71;80.13
13713;DHT22;6928;50.546;7.120;2023-06-10T04:20:34;15.82;79.57
13713;DHT22;6928;50.546;7.120;2023-06-10T04:23:00;15.78;79.73
13713;DHT22;6928;50.546;7.120;2023-06-10T04:25:27;15.49;81.06
13713;DHT22;6928;50.546;7.120;2023-06-10T04:27:55;15.68;80.67
13713;DHT22;6928;50.546;7.120;2023-06-10T04:30:22;15.72;80.59
13713;DHT22;6928;50.546;7.120;2023-06-10T04:32:48;15.89;80.25
13713;DHT22;6928;50.546;7.120;2023-06-10T04:35:15;15.91;80.38
13713;DHT22;6928;50.546;7.120;2023-06-10T04:37:42;16.05;80.07
13713;DHT22;6928;50.546;7.120;2023-06-10T04:40:09;15.95;80.36
13713;DHT22;6928;50.546;7.120;2023-06-10T04:42:37;16.13;79.89
13713;DHT22;6928;50.546;7.120;2023-06-10T04:45:06;16.13;79.88
13713;DHT22;6928;50.546;7.120;2023-06-10T04:47:33;16.18;79.86
13713;DHT22;6928;50.546;7.120;2023-06-10T04:50:00;16.22;80.06
13713;DHT22;6928;50.546;7.120;2023-06-10T04:52:27;16.30;79.50
13713;DHT22;6928;50.546;7.120;2023-06-10T04:54:54;16.36;79.51
13713;DHT22;6928;50.546;7.120;2023-06-10T04:57:20;16.42;79.49
13713;DHT22;6928;50.546;7.120;2023-06-10T04:59:47;16.50;79.19
13713;DHT22;6928;50.546;7.120;2023-06-10T05:02:15;16.46;79.24
13713;DHT22;6928;50.546;7.120;2023-06-10T05:04:42;16.65;78.51
13713;DHT22;6928;50.546;7.120;2023-06-10T05:07:08;16.56;78.95
13713;DHT22;6928;50.546;7.120;2023-06-10T05:09:35;16.59;79.32
13713;DHT22;6928;50.546;7.120;2023-06-10T05:12:02;16.61;78.90
13713;DHT22;6928;50.546;7.120;2023-06-10T05:14:29;16.59;79.15
13713;DHT22;6928;50.546;7.120;2023-06-10T05:16:56;16.50;79.64
13713;DHT22;6928;50.546;7.120;2023-06-10T05:19:24;16.67;78.93
13713;DHT22;6928;50.546;7.120;2023-06-10T05:21:51;16.85;78.39
13713;DHT22;6928;50.546;7.120;2023-06-10T05:24:17;16.98;78.06
13713;DHT22;6928;50.546;7.120;2023-06-10T05:26:44;17.01;77.95
13713;DHT22;6928;50.546;7.120;2023-06-10T05:29:10;17.08;78.36
13713;DHT22;6928;50.546;7.120;2023-06-10T05:31:37;17.12;78.29
13713;DHT22;6928;50.546;7.120;2023-06-10T05:34:03;17.15;77.54
13713;DHT22;6928;50.546;7.120;2023-06-10T05:36:31;17.25;77.26
13713;DHT22;6928;50.546;7.120;2023-06-10T05:38:58;17.25;77.00
13713;DHT22;6928;50.546;7.120;2023-06-10T05:41:25;17.39;77.00
13713;DHT22;6928;50.546;7.120;2023-06-10T05:43:51;17.49;76.61
13713;DHT22;6928;50.546;7.120;2023-06-10T05:46:18;17.47;76.76
13713;DHT22;6928;50.546;7.120;2023-06-10T05:48:45;17.52;76.58
13713;DHT22;6928;50.546;7.120;2023-06-10T05:51:12;17.65;76.02
13713;DHT22;6928;50.546;7.120;2023-06-10T05:53:40;17.66;75.79
13713;DHT22;6928;50.546;7.120;2023-06-10T05:56:06;17.71;75.91
13713;DHT22;6928;50.546;7.120;2023-06-10T05:58:33;17.93;75.90
13713;DHT22;6928;50.546;7.120;2023-06-10T06:00:59;18.10;74.90
13713;DHT22;6928;50.546;7.120;2023-06-10T06:03:26;18.32;74.37
13713;DHT22;6928;50.546;7.120;2023-06-10T06:05:53;18.36;74.22
13713;DHT22;6928;50.546;7.120;2023-06-10T06:08:20;18.51;74.33
13713;DHT22;6928;50.546;7.120;2023-06-10T06:10:49;18.38;75.03
13713;DHT22;6928;50.546;7.120;2023-06-10T06:13:16;18.48;74.78
13713;DHT22;6928;50.546;7.120;2023-06-10T06:15:42;18.97;73.58
13713;DHT22;6928;50.546;7.120;2023-06-10T06:18:09;18.87;73.33
13713;DHT22;6928;50.546;7.120;2023-06-10T06:20:35;18.86;73.31
13713;DHT22;6928;50.546;7.120;2023-06-10T06:23:02;18.98;73.41
13713;DHT22;6928;50.546;7.120;2023-06-10T06:25:28;19.14;72.86
13713;DHT22;6928;50.546;7.120;2023-06-10T06:27:56;19.06;73.05
13713;DHT22;6928;50.546;7.120;2023-06-10T06:30:23;19.04;72.72
13713;DHT22;6928;50.546;7.120;2023-06-10T06:32:49;19.12;73.73
13713;DHT22;6928;50.546;7.120;2023-06-10T06:35:17;19.27;73.29
13713;DHT22;6928;50.546;7.120;2023-06-10T06:37:44;19.65;71.80
13713;DHT22;6928;50.546;7.120;2023-06-10T06:40:11;19.62;71.75
13713;DHT22;6928;50.546;7.120;2023-06-10T06:42:38;19.96;71.06
13713;DHT22;6928;50.546;7.120;2023-06-10T06:45:07;20.09;70.69
13713;DHT22;6928;50.546;7.120;2023-06-10T06:47:33;19.95;71.06
13713;DHT22;6928;50.546;7.120;2023-06-10T06:50:00;20.02;70.75
13713;DHT22;6928;50.546;7.120;2023-06-10T06:52:28;20.61;68.95
13713;DHT22;6928;50.546;7.120;2023-06-10T06:54:54;20.95;68.02
13713;DHT22;6928;50.546;7.120;2023-06-10T06:57:21;20.82;69.03
13713;DHT22;6928;50.546;7.120;2023-06-10T06:59:48;20.96;68.05
13713;DHT22;6928;50.546;7.120;2023-06-10T07:02:16;21.03;68.28
13713;DHT22;6928;50.546;7.120;2023-06-10T07:04:44;21.23;65.36
13713;DHT22;6928;50.546;7.120;2023-06-10T07:07:12;21.40;65.33
13713;DHT22;6928;50.546;7.120;2023-06-10T07:09:38;21.57;65.97
13713;DHT22;6928;50.546;7.120;2023-06-10T07:12:06;21.73;63.58
13713;DHT22;6928;50.546;7.120;2023-06-10T07:14:32;22.06;62.12
13713;DHT22;6928;50.546;7.120;2023-06-10T07:16:59;22.04;59.47
13713;DHT22;6928;50.546;7.120;2023-06-10T07:19:27;22.30;60.87
13713;DHT22;6928;50.546;7.120;2023-06-10T07:21:54;22.66;58.64
13713;DHT22;6928;50.546;7.120;2023-06-10T07:24:20;22.60;59.51
13713;DHT22;6928;50.546;7.120;2023-06-10T07:26:47;22.30;59.97
13713;DHT22;6928;50.546;7.120;2023-06-10T07:29:13;22.64;58.33
13713;DHT22;6928;50.546;7.120;2023-06-10T07:31:41;22.57;59.40
13713;DHT22;6928;50.546;7.120;2023-06-10T07:34:07;22.49;59.65
13713;DHT22;6928;50.546;7.120;2023-06-10T07:36:36;22.43;59.01
13713;DHT22;6928;50.546;7.120;2023-06-10T07:39:04;22.73;57.72
13713;DHT22;6928;50.546;7.120;2023-06-10T07:41:31;23.31;56.05
13713;DHT22;6928;50.546;7.120;2023-06-10T07:43:57;23.11;55.79
13713;DHT22;6928;50.546;7.120;2023-06-10T07:46:24;23.21;56.23
13713;DHT22;6928;50.546;7.120;2023-06-10T07:48:53;23.31;56.37
13713;DHT22;6928;50.546;7.120;2023-06-10T07:51:20;23.53;55.46
13713;DHT22;6928;50.546;7.120;2023-06-10T07:53:49;23.63;55.86
13713;DHT22;6928;50.546;7.120;2023-06-10T07:56:15;23.66;55.82
13713;DHT22;6928;50.546;7.120;2023-06-10T07:58:42;23.96;54.73
13713;DHT22;6928;50.546;7.120;2023-06-10T08:01:08;23.96;55.03
13713;DHT22;6928;50.546;7.120;2023-06-10T08:03:35;24.04;54.94
13713;DHT22;6928;50.546;7.120;2023-06-10T08:06:02;23.89;54.74
13713;DHT22;6928;50.546;7.120;2023-06-10T08:08:28;23.63;55.70
13713;DHT22;6928;50.546;7.120;2023-06-10T08:10:56;24.03;54.24
13713;DHT22;6928;50.546;7.120;2023-06-10T08:13:23;24.27;52.69
13713;DHT22;6928;50.546;7.120;2023-06-10T08:15:49;24.41;53.11
13713;DHT22;6928;50.546;7.120;2023-06-10T08:18:18;24.24;54.47
13713;DHT22;6928;50.546;7.120;2023-06-10T08:20:45;24.18;53.95
13713;DHT22;6928;50.546;7.120;2023-06-10T08:23:11;24.44;52.81
13713;DHT22;6928;50.546;7.120;2023-06-10T08:25:38;24.79;51.40
13713;DHT22;6928;50.546;7.120;2023-06-10T08:28:06;24.89;51.42
13713;DHT22;6928;50.546;7.120;2023-06-10T08:30:32;24.79;52.55
13713;DHT22;6928;50.546;7.120;2023-06-10T08:32:59;24.67;52.62
13713;DHT22;6928;50.546;7.120;2023-06-10T08:35:26;25.28;50.47
13713;DHT22;6928;50.546;7.120;2023-06-10T08:37:52;24.98;51.98
13713;DHT22;6928;50.546;7.120;2023-06-10T08:40:19;25.20;52.16
13713;DHT22;6928;50.546;7.120;2023-06-10T08:42:51;25.43;49.91
13713;DHT22;6928;50.546;7.120;2023-06-10T08:45:22;25.71;49.98
13713;DHT22;6928;50.546;7.120;2023-06-10T08:47:50;25.64;49.79
13713;DHT22;6928;50.546;7.120;2023-06-10T08:50:17;26.10;50.11
13713;DHT22;6928;50.546;7.120;2023-06-10T08:52:47;25.73;49.20
13713;DHT22;6928;50.546;7.120;2023-06-10T08:55:18;25.63;50.09
13713;DHT22;6928;50.546;7.120;2023-06-10T08:57:45;25.50;50.56
13713;DHT22;6928;50.546;7.120;2023-06-10T09:00:13;25.78;50.33
13713;DHT22;6928;50.546;7.120;2023-06-10T09:02:42;26.19;49.05
13713;DHT22;6928;50.546;7.120;2023-06-10T09:05:09;26.16;50.21
13713;DHT22;6928;50.546;7.120;2023-06-10T09:07:35;26.01;49.54
13713;DHT22;6928;50.546;7.120;2023-06-10T09:10:03;26.36;48.39
13713;DHT22;6928;50.546;7.120;2023-06-10T09:12:32;26.04;48.81
13713;DHT22;6928;50.546;7.120;2023-06-10T09:14:59;26.46;47.86
13713;DHT22;6928;50.546;7.120;2023-06-10T09:17:25;26.63;48.28
13713;DHT22;6928;50.546;7.120;2023-06-10T09:19:54;26.63;48.26
13713;DHT22;6928;50.546;7.120;2023-06-10T09:22:22;26.63;46.64
13713;DHT22;6928;50.546;7.120;2023-06-10T09:24:48;26.63;48.43
13713;DHT22;6928;50.546;7.120;2023-06-10T09:27:15;26.83;47.21
13713;DHT22;6928;50.546;7.120;2023-06-10T09:29:51;26.93;47.01
13713;DHT22;6928;50.546;7.120;2023-06-10T09:32:18;27.18;47.41
13713;DHT22;6928;50.546;7.120;2023-06-10T09:34:45;26.95;46.34
13713;DHT22;6928;50.546;7.120;2023-06-10T09:37:19;27.02;47.13
13713;DHT22;6928;50.546;7.120;2023-06-10T09:40:01;27.21;46.86
13713;DHT22;6928;50.546;7.120;2023-06-10T09:42:32;27.37;45.40
13713;DHT22;6928;50.546;7.120;2023-06-10T09:45:00;27.15;47.29
13713;DHT22;6928;50.546;7.120;2023-06-10T09:47:26;27.18;45.44
13713;DHT22;6928;50.546;7.120;2023-06-10T09:49:53;27.48;44.57
13713;DHT22;6928;50.546;7.120;2023-06-10T09:52:23;27.43;44.27
13713;DHT22;6928;50.546;7.120;2023-06-10T09:54:50;28.04;43.48
13713;DHT22;6928;50.546;7.120;2023-06-10T09:57:17;28.34;43.72
13713;DHT22;6928;50.546;7.120;2023-06-10T09:59:44;28.11;44.13
13713;DHT22;6928;50.546;7.120;2023-06-10T10:02:14;27.97;43.56
13713;DHT22;6928;50.546;7.120;2023-06-10T10:04:41;27.76;43.88
13713;DHT22;6928;50.546;7.120;2023-06-10T10:07:08;28.09;45.46
13713;DHT22;6928;50.546;7.120;2023-06-10T10:09:37;28.07;44.20
13713;DHT22;6928;50.546;7.120;2023-06-10T10:12:09;28.20;40.90
13713;DHT22;6928;50.546;7.120;2023-06-10T10:14:37;28.45;40.76
13713;DHT22;6928;50.546;7.120;2023-06-10T10:17:07;28.52;40.68
13713;DHT22;6928;50.546;7.120;2023-06-10T10:19:40;28.32;40.15
13713;DHT22;6928;50.546;7.120;2023-06-10T10:22:12;28.55;41.15
13713;DHT22;6928;50.546;7.120;2023-06-10T10:24:48;28.11;41.46
13713;DHT22;6928;50.546;7.120;2023-06-10T10:27:18;28.28;41.62
13713;DHT22;6928;50.546;7.120;2023-06-10T10:29:48;28.20;41.76
13713;DHT22;6928;50.546;7.120;2023-06-10T10:32:17;28.28;41.99
13713;DHT22;6928;50.546;7.120;2023-06-10T10:34:49;28.38;41.76
13713;DHT22;6928;50.546;7.120;2023-06-10T10:37:17;28.72;41.27
13713;DHT22;6928;50.546;7.120;2023-06-10T10:39:46;28.62;41.15
13713;DHT22;6928;50.546;7.120;2023-06-10T10:42:13;28.55;40.79
13713;DHT22;6928;50.546;7.120;2023-06-10T10:44:40;29.71;41.44
13713;DHT22;6928;50.546;7.120;2023-06-10T10:47:08;28.67;40.66
13713;DHT22;6928;50.546;7.120;2023-06-10T10:49:35;28.82;40.19
13713;DHT22;6928;50.546;7.120;2023-06-10T10:52:04;29.51;38.34
13713;DHT22;6928;50.546;7.120;2023-06-10T10:54:32;29.26;38.90
13713;DHT22;6928;50.546;7.120;2023-06-10T10:57:14;29.46;38.20
13713;DHT22;6928;50.546;7.120;2023-06-10T10:59:55;30.08;36.75
13713;DHT22;6928;50.546;7.120;2023-06-10T11:02:40;29.81;35.56
13713;DHT22;6928;50.546;7.120;2023-06-10T11:05:09;30.35;35.47
13713;DHT22;6928;50.546;7.120;2023-06-10T11:07:36;29.98;34.68
13713;DHT22;6928;50.546;7.120;2023-06-10T11:10:07;30.56;35.03
13713;DHT22;6928;50.546;7.120;2023-06-10T11:12:49;30.12;35.60
13713;DHT22;6928;50.546;7.120;2023-06-10T11:15:18;29.61;35.68
13713;DHT22;6928;50.546;7.120;2023-06-10T11:18:08;30.29;33.98
13713;DHT22;6928;50.546;7.120;2023-06-10T11:20:45;30.13;34.41
13713;DHT22;6928;50.546;7.120;2023-06-10T11:23:25;29.84;34.80
13713;DHT22;6928;50.546;7.120;2023-06-10T11:25:51;29.69;34.54
13713;DHT22;6928;50.546;7.120;2023-06-10T11:28:36;30.25;33.83
13713;DHT22;6928;50.546;7.120;2023-06-10T11:31:03;30.01;33.82
13713;DHT22;6928;50.546;7.120;2023-06-10T11:33:29;29.96;34.65
13713;DHT22;6928;50.546;7.120;2023-06-10T11:35:57;29.43;33.98
13713;DHT22;6928;50.546;7.120;2023-06-10T11:38:24;29.64;34.75
13713;DHT22;6928;50.546;7.120;2023-06-10T11:40:51;29.77;34.63
13713;DHT22;6928;50.546;7.120;2023-06-10T11:43:18;29.94;34.20
13713;DHT22;6928;50.546;7.120;2023-06-10T11:45:46;30.22;34.40
13713;DHT22;6928;50.546;7.120;2023-06-10T11:48:13;30.45;33.83
13713;DHT22;6928;50.546;7.120;2023-06-10T11:50:39;30.39;33.70
13713;DHT22;6928;50.546;7.120;2023-06-10T11:53:08;30.73;33.75
13713;DHT22;6928;50.546;7.120;2023-06-10T11:55:45;30.19;33.59
13713;DHT22;6928;50.546;7.120;2023-06-10T11:58:13;29.81;33.41
13713;DHT22;6928;50.546;7.120;2023-06-10T12:00:45;30.30;33.72
13713;DHT22;6928;50.546;7.120;2023-06-10T12:03:12;30.42;33.31
13713;DHT22;6928;50.546;7.120;2023-06-10T12:05:39;30.85;31.75
13713;DHT22;6928;50.546;7.120;2023-06-10T12:08:09;30.95;29.77
13713;DHT22;6928;50.546;7.120;2023-06-10T12:10:40;30.96;31.27
13713;DHT22;6928;50.546;7.120;2023-06-10T12:13:08;31.29;29.66
13713;DHT22;6928;50.546;7.120;2023-06-10T12:15:34;30.16;30.16
13713;DHT22;6928;50.546;7.120;2023-06-10T12:18:02;30.64;30.99
13713;DHT22;6928;50.546;7.120;2023-06-10T12:20:31;30.73;30.80
13713;DHT22;6928;50.546;7.120;2023-06-10T12:22:59;31.29;30.66
13713;DHT22;6928;50.546;7.120;2023-06-10T12:25:28;31.04;30.34
13713;DHT22;6928;50.546;7.120;2023-06-10T12:27:58;30.36;31.58
13713;DHT22;6928;50.546;7.120;2023-06-10T12:30:26;30.26;31.91
13713;DHT22;6928;50.546;7.120;2023-06-10T12:32:53;30.54;31.76
13713;DHT22;6928;50.546;7.120;2023-06-10T12:35:23;30.53;31.93
13713;DHT22;6928;50.546;7.120;2023-06-10T12:37:58;30.09;32.22
13713;DHT22;6928;50.546;7.120;2023-06-10T12:40:26;30.26;31.96
13713;DHT22;6928;50.546;7.120;2023-06-10T12:42:54;30.92;32.02
13713;DHT22;6928;50.546;7.120;2023-06-10T12:45:26;30.98;31.09
13713;DHT22;6928;50.546;7.120;2023-06-10T12:48:04;30.45;32.08
13713;DHT22;6928;50.546;7.120;2023-06-10T12:50:32;31.11;30.91
13713;DHT22;6928;50.546;7.120;2023-06-10T12:52:59;30.96;30.76
13713;DHT22;6928;50.546;7.120;2023-06-10T12:55:26;30.52;31.00
13713;DHT22;6928;50.546;7.120;2023-06-10T12:57:53;30.43;31.10
13713;DHT22;6928;50.546;7.120;2023-06-10T13:00:20;30.71;30.67
13713;DHT22;6928;50.546;7.120;2023-06-10T13:02:48;30.27;30.79
13713;DHT22;6928;50.546;7.120;2023-06-10T13:05:16;30.08;31.65
13713;DHT22;6928;50.546;7.120;2023-06-10T13:07:46;29.95;32.15
13713;DHT22;6928;50.546;7.120;2023-06-10T13:10:14;30.22;32.28
13713;DHT22;6928;50.546;7.120;2023-06-10T13:12:41;30.23;33.33
13713;DHT22;6928;50.546;7.120;2023-06-10T13:15:09;30.36;34.01
13713;DHT22;6928;50.546;7.120;2023-06-10T13:17:35;30.19;32.47
13713;DHT22;6928;50.546;7.120;2023-06-10T13:20:02;30.15;32.23
13713;DHT22;6928;50.546;7.120;2023-06-10T13:22:30;29.86;33.85
13713;DHT22;6928;50.546;7.120;2023-06-10T13:24:59;29.54;34.84
13713;DHT22;6928;50.546;7.120;2023-06-10T13:27:25;30.08;34.26
13713;DHT22;6928;50.546;7.120;2023-06-10T13:29:52;30.16;33.77
13713;DHT22;6928;50.546;7.120;2023-06-10T13:32:19;30.04;33.18
13713;DHT22;6928;50.546;7.120;2023-06-10T13:34:46;30.71;33.46
13713;DHT22;6928;50.546;7.120;2023-06-10T13:37:12;30.47;32.93
13713;DHT22;6928;50.546;7.120;2023-06-10T13:39:39;30.64;33.08
13713;DHT22;6928;50.546;7.120;2023-06-10T13:42:07;31.01;32.82
13713;DHT22;6928;50.546;7.120;2023-06-10T13:44:34;30.61;32.46
13713;DHT22;6928;50.546;7.120;2023-06-10T13:47:01;30.78;32.24
13713;DHT22;6928;50.546;7.120;2023-06-10T13:49:28;30.91;30.83
13713;DHT22;6928;50.546;7.120;2023-06-10T13:51:57;31.08;29.55
13713;DHT22;6928;50.546;7.120;2023-06-10T13:54:24;30.80;30.26
13713;DHT22;6928;50.546;7.120;2023-06-10T13:56:50;30.83;30.14
13713;DHT22;6928;50.546;7.120;2023-06-10T13:59:20;30.94;30.61
13713;DHT22;6928;50.546;7.120;2023-06-10T14:01:47;31.12;30.14
13713;DHT22;6928;50.546;7.120;2023-06-10T14:04:13;30.67;31.47
13713;DHT22;6928;50.546;7.120;2023-06-10T14:06:40;30.80;31.20
13713;DHT22;6928;50.546;7.120;2023-06-10T14:09:06;30.83;30.42
13713;DHT22;6928;50.546;7.120;2023-06-10T14:11:33;31.11;29.72
13713;DHT22;6928;50.546;7.120;2023-06-10T14:13:59;30.77;30.23
13713;DHT22;6928;50.546;7.120;2023-06-10T14:16:27;30.98;30.80
13713;DHT22;6928;50.546;7.120;2023-06-10T14:18:54;30.71;31.50
13713;DHT22;6928;50.546;7.120;2023-06-10T14:21:20;30.63;30.99
13713;DHT22;6928;50.546;7.120;2023-06-10T14:23:47;30.39;31.02
13713;DHT22;6928;50.546;7.120;2023-06-10T14:26:15;30.95;31.43
13713;DHT22;6928;50.546;7.120;2023-06-10T14:28:42;30.78;31.83
13713;DHT22;6928;50.546;7.120;2023-06-10T14:31:08;30.95;30.90
13713;DHT22;6928;50.546;7.120;2023-06-10T14:33:36;30.99;31.59
13713;DHT22;6928;50.546;7.120;2023-06-10T14:36:03;30.78;31.47
13713;DHT22;6928;50.546;7.120;2023-06-10T14:38:29;30.77;31.05
13713;DHT22;6928;50.546;7.120;2023-06-10T14:40:56;30.67;28.22
13713;DHT22;6928;50.546;7.120;2023-06-10T14:43:24;30.83;28.88
13713;DHT22;6928;50.546;7.120;2023-06-10T14:45:50;31.28;29.10
13713;DHT22;6928;50.546;7.120;2023-06-10T14:48:17;31.21;29.98
13713;DHT22;6928;50.546;7.120;2023-06-10T14:50:45;31.10;29.24
13713;DHT22;6928;50.546;7.120;2023-06-10T14:53:16;30.91;28.84
13713;DHT22;6928;50.546;7.120;2023-06-10T14:55:42;30.84;28.81
13713;DHT22;6928;50.546;7.120;2023-06-10T14:58:09;30.68;29.24
13713;DHT22;6928;50.546;7.120;2023-06-10T15:00:35;30.50;30.05
13713;DHT22;6928;50.546;7.120;2023-06-10T15:03:02;30.16;30.69
13713;DHT22;6928;50.546;7.120;2023-06-10T15:05:29;30.74;30.41
13713;DHT22;6928;50.546;7.120;2023-06-10T15:07:56;30.39;32.09
13713;DHT22;6928;50.546;7.120;2023-06-10T15:10:23;30.83;29.83
13713;DHT22;6928;50.546;7.120;2023-06-10T15:12:50;30.57;29.15
13713;DHT22;6928;50.546;7.120;2023-06-10T15:15:20;31.08;29.75
13713;DHT22;6928;50.546;7.120;2023-06-10T15:17:47;30.61;30.57
13713;DHT22;6928;50.546;7.120;2023-06-10T15:20:14;30.25;30.79
13713;DHT22;6928;50.546;7.120;2023-06-10T15:22:42;30.47;30.34
13713;DHT22;6928;50.546;7.120;2023-06-10T15:25:10;30.39;31.26
13713;DHT22;6928;50.546;7.120;2023-06-10T15:27:37;30.77;31.16
13713;DHT22;6928;50.546;7.120;2023-06-10T15:30:08;30.88;31.22
13713;DHT22;6928;50.546;7.120;2023-06-10T15:32:35;30.77;31.67
13713;DHT22;6928;50.546;7.120;2023-06-10T15:35:01;30.68;31.70
13713;DHT22;6928;50.546;7.120;2023-06-10T15:37:28;30.59;32.13
13713;DHT22;6928;50.546;7.120;2023-06-10T15:39:55;30.43;31.91
13713;DHT22;6928;50.546;7.120;2023-06-10T15:42:23;30.30;32.47
13713;DHT22;6928;50.546;7.120;2023-06-10T15:44:49;30.08;32.07
13713;DHT22;6928;50.546;7.120;2023-06-10T15:47:17;30.22;32.53
13713;DHT22;6928;50.546;7.120;2023-06-10T15:49:44;30.19;32.76